Timeline UpdatesTrip UpdatesNews PostsPvt PostsTravel TipsAdmin PostsConv PostsFollowed PostsChat RequestsBlog PostsPNR Posts

Disclaimer
Search
 
 
Wed Sep 3, 2014 10:07:43 ISTHomeTrainsΣChainsAtlasPNRForumGalleryNewsFAQTripsMembersLoginFeedback
No Recent News for this Train
Other Trains in the News **new
Latest...
.
Sun Nov 03, 2013 (10:46PM)
⇐ Return Journey: Train# 13352

13351/Dhanbad-Alappuzha(Alleppey) Express

Time-Table HAS CHANGED. update tt
Sep 01 (11:36PM)
Change Departure Station:
Change Arrival Station:
Post a Train Travel TipPost a Train Travel Tip **new
Post a Comment/Question/Picture/VideoPost a Comment/Question/Picture/Video
Pantry/Catering
✓ Pantry Car Avbl
✓ Catering Avbl
Average
Loco/Rake Reversals
MAS/Chennai Central (12); SRR/Shoranur Junction (7); VSKP/Visakhapatnam Junction (8);
RSA - Rake Sharing
Rake/Coach Composition
LOCO-SLR-GS-S1-S2-S3-S4-S5-; S6-S7-S8-PC-A1-B1-B2*-A2*-ST1*-ST2*-; ST3*-ST4*-ST5*-GS*-SLR*;(DHN-VSKP, MAS-SRR) ; *Tata portion attached at ROU; CC reverses for VSKP-MAS & SRR-ALLP)
Loco
Official Loco DHN - ROU :- WAM-4 ROU - VSKP :- WDM-3A/WDG-3A...
Read more...
(Twins) VSKP - MAS :- WAM-4/WAP-1 MAS - ALLP:- WAM-4/WAP-4
News    PNR    Forum    Time-Table    Availability    Fare Chart    Map    Arr/Dep History    Trips    Gallery    ΣChains    X/O    Timeline    
Travel Time: 53h 15m    86 halts    Distance: 2371 km    Avg Speed: 44 km/hr
Type: Mail/Express
Zone: ECR/East Central
Departs @ 15:05
Platform# 3
SMTWTFS
Ranchi Junction/RNC 
Arrives @ 20:20 +2 nights
Platform# 3
SMTWTFS
Alappuzha/ALLP 

86 halts. 383 intermediate Stations between Ranchi Junction and Alappuzha

Show ALL intermediate Stations  Show Old Time-Table

#CodeStation NameX/OArrivesAvgDepartsAvgHaltPFDay#KmSpeedElevZoneAddress
1DHNDhanbad Junction (8)  -10:50-51-162.230235mECR2319801. Div. HQ ECR, Jharkhand
2KTHKatrasgarh (1)  11:18-11:20-2m11-148.434198mECRKatrasgarh, Jharkhand
3CRPChandrapura Junction (2)X  11:56-11:58-2m11-127.935227mECR06549-242555, Jharkhand
4BKSCBokaro Steel City (3)  12:25-12:35-10m21-112.371245mSER06542-253861, Jharkhand
5PNWPundhag (3)  12:49-12:50-1m21-95.763291mSERDist - Puruliya -723215, West Bengal
6JAAJhalida (3)X  13:12-13:13-1m--1-72.438297mSERJhalida, West Bengal
7MURIMuri Junction (3)  13:33-13:35-2m21-59.748254mSER06522-222444, Jharkhand
8RNC»Ranchi Junction (6)»X  14:50-15:05-15m310.028632mSERDiv HQ SER, Jharkhand
9HTEHatia (3)  15:20-15:25-5m--17.078657mSER2788599, Jharkhand
10GBXGovindpur Road15:58 15:57-16:00 15:58-2 1m--148.882577mSERkhunti, Jharkhand
11BANOBano  16:45 16:37-16:46 16:38-1m--1101.936452mSERDist. Gumla, Jharkhand
12NXNNuagaon  17:49-17:50-1m--1144.052218mSERKeonjhar, Odisha
13BNDMBondamunda (2)  18:14-18:15-1m--1164.826213mSERRourkela, Odisha
14ROURourkela Junction (5)X  18:30-19:00-30m21171.364198mSERRourkela, Odisha
15GPRaj Gangpur (3)O  19:28-19:29-1m11201.169237mSERRaj Ganpur, Odisha
16BMBBamra (3)X  19:59-20:00-1m--1235.755259mSERBamra PH : 06642-229268, Odisha
17JSGJharsuguda Junction (5)  20:40-20:50-10m11272.266236mSERJharsuguda, Odisha
18RGLRengali  21:15 21:14-21:17 21:15-2 1m--1298.665208mECoRState Highway 10, Odisha
19SBPDSambalpur Road  21:35 21:34-21:37 21:35-2 1m--1319.39161mECoRSambalpur, Odisha
20SBPSambalpur Junction (3)X  21:45-21:55-10m--1320.861159mECoRSambalpur, Odisha
21ATSAttabira  22:18 22:19-22:20-2 1m--1345.377164mECoRBargarh, Odisha
22BRGABargarh Road (3)X  22:34-22:39-5m--1363.468185mECoRBargarh, Odisha
23BRPLBarpaliX  22:57 22:56-22:59 22:57-2 1m--1382.665178mECoRBarpali, Odisha
24BLGRBalangir (3)  23:50-23:55-5m--1439.646210mECoRBolangir, Odisha
25BUDMBadmal  00:50 00:51-00:52-2 1m--2483.023209mECoRDumerbahal Rd, Odisha
26TIGTitlagarh Junction (3)X  01:45-01:55-10m--2503.052212mECoRTitlagarh, Odisha
27KSNGKesinga (1)X  02:10 02:11-02:12-2 1m12517.061183mECoRKesinga, Odisha
28RPRDRupra Road  02:27 02:28-02:29-2 1m--2533.240233mECoRKalahandi, Odisha
29NRLRNorla Road  02:38 02:39-02:40-2 1m--2539.858247mECoRKalahandi, Odisha
30AMBAmbodala  03:05 03:06-03:07-2 1m--2564.838374mECoRState Highway 6, Odisha
31MNGDMunigudaX  03:45 03:46-03:47-2 1m--2589.840335mECoRMuniguda, Odisha
32THVTherubali  04:40 04:41-04:42-2 1m--2625.830270mECoRRayagada, Odisha
33SPRDSingapuram Road (2)X  05:00 05:01-05:02-2 1m--2635.215248mECoRJaykaypur, Odisha
34RGDARayagada (3)  05:40-05:55-15m--2644.472229mECoRRayagada ph.no 06856-222407, Odisha
35PVPTParvatipuram TownX  06:32 06:33-06:34-2 1m--2689.720121mECoRParvatipuram, Andhra Pradesh
36PVPParvatipuram (3)  06:38 06:39-06:40-2 1m--2691.372122mECoRParvatipuram, Andhra Pradesh
37VBLBobbili Junction (2)X  07:00-07:03-3m22715.249137mECoRBobbili, Andhra Pradesh
38VZMVizianagaram Junction (5)  08:15 08:10-08:20 08:15-5m--2769.58163mECoRVizianagaram, Andhra Pradesh
39KTVKottavalasa Junction (5)X  08:48 08:41-08:50 08:42-2 1m--2804.55758mECoRVizianagaram District, Andhra Pradesh
40SCMSimhachalam (2)XO  09:17 09:01-09:19 09:02-2 1m--2822.5827mECoRVisakhapatnam, Andhra Pradesh
41VSKPVisakhapatnam Junction (8)X10:05-10:25-20m32830.75211mECoRVishakhapatnam 530001, Andhra Pradesh
42DVDDuvvada (4)X  10:55 10:44-10:57 10:45-2 1m12847.04046mECoRVishakhapatnam District, Andhra Pradesh
43AKPAnakapalle (3)  11:10 11:09-11:11 11:10-1m22863.06830mSCRAnakapalle ph.no . 08924-221698, Andhra Pradesh
44YLMElamanchili (2)X  11:31-11:32-1m--2886.77123mSCRVisakhapatnam District, Andhra Pradesh
45NRPNarsipatnam Road (2)  11:47-11:48-1m--2904.58418mSCRVisakhapatnam District, Andhra Pradesh
46TUNITuni (2)X  12:04-12:05-1m12926.87124mSCRTuni ph.no. 08854-252172, Andhra Pradesh
47ANVAnnavaram (3)  12:19-12:20-1m12943.47627mSCREast Godavari District, Andhra Pradesh
48GLPGollaproluX  12:35-12:36-1m--2962.54919mSCRGollaprollu, Andhra Pradesh
49PAPPithapuram (2)  12:43-12:44-1m--2968.27222mSCREast Godavari District, Andhra Pradesh
50SLOSamalkot Junction (3)  12:54-12:55-1m32980.38418mSCRSamalkot, Andhra Pradesh
51APTAnaparti (3)  13:14-13:15-1m--21006.83821mSCREast Godavari District, Andhra Pradesh
52DWPDwarapudi (3)  13:21-13:22-1m--21010.52420mSCREast Godavari District, Andhra Pradesh
53RJYRajahmundry (3)  14:11-14:16-5m121030.53623mSCRRajahmundry ph.no. 0883-2420541, Andhra Pradesh
54KVRKovvur (3)  14:29-14:30-1m321038.36125mSCRWest Godavari, Andhra Pradesh
55NDDNidadavolu Junction (3)  14:44-14:45-1m221052.67120mSCRNidadavolu jtn ph.no. 08813-210325, Andhra Pradesh
56TDDTadepalligudem (3)X  15:02-15:03-1m321072.68718mSCRTadepalligudem, Andhra Pradesh
57EEEluru (3)X  15:36-15:37-1m321120.42919mSCREluru Ph.no. 08812 226401., Andhra Pradesh
58BZAVijayawada Junction (10)X  17:25 17:40-17:45 18:00-20m--21179.8-24mSCRVijayawada 520001, Andhra Pradesh
59TELTenali Junction (5)  18:12-18:13-1m321211.04316mSCRTel: 08644-227834, Andhra Pradesh
60NDONidubrolu (3)  18:33 18:44-18:34 18:45-1m--21233.0659mSCRNidubrolu, Andhra Pradesh
61BPPBapatla (3)  18:53 19:04-18:54 19:05-1m--21253.66510mSCRBapatla, Andhra Pradesh
62CLXChirala (4)  19:06 19:19-19:07 19:20-1m--21268.7878mSCRChirala, Andhra Pradesh
63CJMChinnaganjam (3)X  19:23 19:34-19:24 19:35-1m--21289.0519mSCRChinna Ganjam, Andhra Pradesh
64OGLOngole (3)X  20:12 20:09-20:13 20:10-1m321318.06812mSCROngole, Andhra Pradesh
65SKMSingarayakonda (2)X  20:35-20:36-1m221346.39126mSCRSingarayakonda, Andhra Pradesh
66KVZKavali (4)X  21:01-21:02-1m221384.07621mSCRKavali, Andhra Pradesh
67BTTRBitragunta (2)X  21:15-21:16-1m221400.54515mSCRBitragunta, Andhra Pradesh
68NLRNellore (4)X  22:02-22:03-1m321434.81721mSCRNellore, Andhra Pradesh
69GDRGudur Junction (3)  00:18-00:20-2m131473.36919mSCRGudur, Andhra Pradesh
70NYPNayadupeta (3)  00:44-00:45-1m231500.96833mSRNayudupeta, Andhra Pradesh
71SPESullurupeta (3)  01:09-01:10-1m231528.2479mSR524121., Andhra Pradesh
72MASChennai Central (12)↵¶02:55-03:25-30m531610.6579mSRChennai 600003, Tamil Nadu
73TRLTiruvallur (6)  04:09-04:10-1m--31652.36550mSRTiruvallur, Tamil Nadu
74AJJArakkonam Junction (8)X  04:35-04:40-5m--31679.36891mSRArakkonam, Tamil Nadu
75MCNMukundarayapuram (2)X  05:19-05:20-1m--31723.540198mSRSipcot Ranipet, Tamil Nadu
76KPDKatpadi Junction (5)X  05:50 05:45-05:55 05:50-5m131740.177213mSRVellore 632007, Tamil Nadu
77GYMGudiyattam (3)  06:14 06:09-06:15 06:10-1m331764.691269mSRVellore, Tamil Nadu
78VNVaniyambadiXO  06:44 06:39-06:45 06:40-1m--31808.424357mSRVaniyambadi, Tamil Nadu
79JTJJolarpettai Junction (5)  07:18-07:20-2m--31823.939405mSRJolarpettai, Tamil Nadu
80TPTTirupattur (2)  07:30 07:31-07:32-2 1m--31831.173392mSRTirupattur ph.no. 04179-220062, Tamil Nadu
81SLYSamalpatti  07:50 07:51-07:52-2 1m--31854.387388mSRSamalpatti ph.no. 04341-245601, Tamil Nadu
82BQIBommidiX  08:23 08:24-08:25-2 1m--31900.9520mSRBommidi ph.no. 04346-244441, Tamil Nadu
83SASalem Junction (6)X  09:00 09:15-09:05 09:20-5m--31944.261283mSRSalem, Tamil Nadu
84EDErode Junction (4)X  10:15 10:20-10:25 10:30-10m232005.570175mSRErode ph.no: 0424-2256111, Tamil Nadu
85TUPTiruppur (2)  11:03 11:13-11:05 11:15-2m132055.743305mSRTiruppur. Ph:0421-2200450, Tamil Nadu
86CBECoimbatore Main Junction (6)  12:08 12:25-12:10 12:30-2 5m--32106.239416mSRCoimbatore 641001, Tamil Nadu
87PGTPalakkad Junction (4)X  13:30 13:55-13:35 14:00-5m--32161.53684mSRPalghat Tel: 0491 2555231, Kerala
88SRRShoranur Junction (7)14:40 15:15-15:25-45 10m532206.14226mSRShoranur ph.no 0466-2222913, Kerala
89TCRThrissur (4)  16:27 16:12-16:30 16:15-3m132239.1606mSRThrissur Tel: 0487 2423150, Kerala
90AWYAluva (3)X  17:18 17:10-17:20 17:12-2m132293.71812mSRPh: 0484-2624141, Kerala
91ERSErnakulam Junction (South) (6)  18:26 18:15-18:30 18:25-4 10m132313.1413mSRErnakulam 682016, Kerala
92TUVRTuravur (2)  19:04 18:59-19:05 19:00-1m132336.5665mSRThuravoor, Kerala
93SRTLCherthala (3)O  19:19 19:09-19:20 19:10-1m232346.5737mSRPh: 0478- 2812500, Kerala
94MAKMMararikkulam (1)X  19:25 19:19-19:45 19:20-20 1m132357.41312mSRMararikulam, Kerala
95ALLP•Alappuzha (3)•  20:20--332370.6-8mSRPh:0477-2253965, Kerala
Scroll to Top
Scroll to Bottom